Mayfield Heights, OH (44124)

8:00 PM EDT on March 26, 2015 (GMT -0400)
Buckeye Woodhill | | Change Station
CLOSE
Current Station
Personal Weather Station
Location: Cleveland, OH
Elevation: 776 ft
Nearby Weather Stations

Elev 776 ft 41.48 °N, 81.62 °W | Updated 43 seconds ago

Overcast
Overcast
37.0 °F
Feels Like 37 °F
N
2.0
Wind Variable Wind from SW
Gusts 2.0 mph

Today
High -- | Low -- °F
--% Chance of Precip.
Yesterday
High -- | Low -- °F
Precip. -- in
7:20 AM 7:45 PM
Waxing Crescent, 47% visible
Pressure 29.89 in
Visibility 5.0 miles
Clouds Mostly Cloudy 4600 ft
Overcast 15000 ft
Windchill 37 °F
Dew Point 35 °F
Humidity 91%
Rainfall 0.49 in
Snow Depth Not available.
UV 0 out of 12
Pollen .70 out of 12
Air Quality Not available.
Flu Activity Not available.
METAR KBKL 262353Z 00000KT 5SM BR BKN046 OVC150 02/01 A2987 RMK AO2 SLP121 60000 T00220006 10022 20006 51007

More Conditions Fewer Conditions

Pressure 29.89 in
Visibility 5.0 miles
Clouds Mostly Cloudy 4600 ft
Overcast 15000 ft
Windchill 37 °F
Dew Point 35 °F
Humidity 91%
Rainfall 0.49 in
Snow Depth Not available.
UV 0 out of 12
Pollen .70 out of 12
Air Quality Not available.
Flu Activity Not available.
METAR KBKL 262353Z 00000KT 5SM BR BKN046 OVC150 02/01 A2987 RMK AO2 SLP121 60000 T00220006 10022 20006 51007

More Conditions Fewer Conditions

10-Day Weather Forecast

Almanac

Astronomy

Mar. 26, 2015 Rise Set
Actual Time
Civil Twilight
Nautical Twilight
Astronomical Twilight
Moon
Length of Visible Light
Length of Day
Tomorrow will be .
, % of the Moon is Illuminated

Today's Extremes

State Highs State Lows

Community

WunderPhotos

Upload Photos

1,808,651 photos uploaded!

WunderBlogs® & News

Nearby

Air Quality

  Air Quality AQ Index Pollutant
Not available.

Snow Depth

Station Depth Elevation

Earthquake Activity

City Distance Mag. Time & Date
Minimum magnitude displayed is 2.5.

Coastal Water Temperatures

Place Temperature

Stations

Nearby Weather Stations

Station Location Temp. Windchill Dew Point Humidity Wind Precip. Elev Updated Type